Hovedside
METAR-TAF:

METAR-TAF

Lufthavner :

Kuwait, Kuwait

breddegrad: 29-13N, lengdegrad: 047-59E, høyde over havet: 55 m

Gjeldene værobservasjon

Denne rapporten ble laget for 44 minutter siden, klokken 08:00 UTC
Flau vind
Temperatur 27°C
Luftfuktighet 26%
Trykk 1017 hPa
Sikt: 6000 m

METAR: OKBK 130800Z 00000KT 6000 NSC 27/06 Q1017 NOSIG

Tid: 11:44 (08:44 UTC)

Varsel

Denne rapporten ble laget for 3 timer og 59 minutter siden, klokken 04:45 UTC
Varsel gyldig fra 13. klokken 06 UTC til 14. klokken 12 UTC
Vind 3 kt fra skiftende retning
Sikt: 7000 m
Midlertidig
fra 13. klokken 06 UTC til 13. klokken 09 UTC
Sikt: 4000 m
dis

TAF: OKBK 130445Z 1306/1412 VRB03KT 7000 NSC TEMPO 1306/1309 4000 HZ

Værobservasjoner og værvarsel for over 4000 flyplasser (METAR- og TAF-rapporter).

Tilgjengelige stasjoner er representert av de røde og gule prikkene på kartet.

Hold musepekeren over prikken for å se navnet på stasjonen.

Klikk så for å se værobservasjoner og -varsler.

For å forandre kartet kan du klikke på den grønne knappen med svart kryss for å zoome inn, på den grønne knappen med strek for å zoome ut, eller på de grønne pilene for å se tilstøtende kart.


METAR-TAF: